Mesa Verde National Park, Colorado
Current Conditions -  °F | °C
As of 4:53 PM on Friday 24 Oct 2014 (Local Time) from KCEZ Reporting Station
Clear Clear  
Wind Chill: 73°   Ceiling: Unl
Heat Index: 73°   Visibility: 10mi
Dew Point: 24°   Wind: 10mph
Humidity: 16%   Direction: 280°W
Pressure: 30.29"   Gusts: NA
Location:  37.1877°N, 108.492°W
Report Text: KCEZ 242253Z AUTO 28009KT 10SM CLR 23/M04 A3029 RMK AO2 SLP214 T02281044
Loading
Personal Weather Stations






























Interactive Weather Map New forecast layout! Learn more

10-Day Weather Forecast

Advertisements
Track Severe Weather on mobile